sensor_id;sensor_type;location;lat;lon;timestamp;pressure;altitude;pressure_sealevel;temperature;humidity
40574;BME280;26283;49.020;8.644;2023-04-08T00:02:18;99605.72;;;14.42;53.83
40574;BME280;26283;49.020;8.644;2023-04-08T00:04:43;99604.91;;;14.42;53.84
40574;BME280;26283;49.020;8.644;2023-04-08T00:07:09;99610.31;;;14.42;53.85
40574;BME280;26283;49.020;8.644;2023-04-08T00:09:34;99614.91;;;14.41;53.86
40574;BME280;26283;49.020;8.644;2023-04-08T00:12:00;99612.41;;;14.39;53.86
40574;BME280;26283;49.020;8.644;2023-04-08T00:14:26;99612.41;;;14.39;53.88
40574;BME280;26283;49.020;8.644;2023-04-08T00:16:51;99607.00;;;14.39;53.88
40574;BME280;26283;49.020;8.644;2023-04-08T00:19:17;99608.88;;;14.39;53.90
40574;BME280;26283;49.020;8.644;2023-04-08T00:21:42;99610.75;;;14.38;53.90
40574;BME280;26283;49.020;8.644;2023-04-08T00:24:07;99609.94;;;14.38;53.92
40574;BME280;26283;49.020;8.644;2023-04-08T00:26:33;99613.69;;;14.37;53.93
40574;BME280;26283;49.020;8.644;2023-04-08T00:28:58;99612.87;;;14.36;53.94
40574;BME280;26283;49.020;8.644;2023-04-08T00:31:23;99617.47;;;14.36;53.96
40574;BME280;26283;49.020;8.644;2023-04-08T00:33:49;99604.97;;;14.35;53.97
40574;BME280;26283;49.020;8.644;2023-04-08T00:36:15;99616.62;;;14.35;53.97
40574;BME280;26283;49.020;8.644;2023-04-08T00:38:40;99610.41;;;14.35;53.98
40574;BME280;26283;49.020;8.644;2023-04-08T00:41:05;99616.62;;;14.35;53.99
40574;BME280;26283;49.020;8.644;2023-04-08T00:43:31;99618.75;;;14.33;53.99
40574;BME280;26283;49.020;8.644;2023-04-08T00:45:56;99617.69;;;14.34;54.00
40574;BME280;26283;49.020;8.644;2023-04-08T00:48:22;99623.34;;;14.33;54.01
40574;BME280;26283;49.020;8.644;2023-04-08T00:50:47;99609.81;;;14.33;54.03
40574;BME280;26283;49.020;8.644;2023-04-08T00:53:17;99612.75;;;14.31;54.04
40574;BME280;26283;49.020;8.644;2023-04-08T00:55:42;99625.25;;;14.32;54.06
40574;BME280;26283;49.020;8.644;2023-04-08T00:58:08;99616.28;;;14.32;54.05
40574;BME280;26283;49.020;8.644;2023-04-08T01:00:35;99620.87;;;14.31;54.06
40574;BME280;26283;49.020;8.644;2023-04-08T01:03:09;99620.87;;;14.31;54.07
40574;BME280;26283;49.020;8.644;2023-04-08T01:05:46;99623.81;;;14.30;54.09
40574;BME280;26283;49.020;8.644;2023-04-08T01:08:14;99630.06;;;14.30;54.10
40574;BME280;26283;49.020;8.644;2023-04-08T01:10:44;99621.38;;;14.28;54.09
40574;BME280;26283;49.020;8.644;2023-04-08T01:13:16;99624.09;;;14.28;54.11
40574;BME280;26283;49.020;8.644;2023-04-08T01:15:43;99624.09;;;14.28;54.13
40574;BME280;26283;49.020;8.644;2023-04-08T01:18:12;99625.97;;;14.28;54.13
40574;BME280;26283;49.020;8.644;2023-04-08T01:20:39;99622.44;;;14.27;54.15
40574;BME280;26283;49.020;8.644;2023-04-08T01:23:17;99616.19;;;14.27;54.14
40574;BME280;26283;49.020;8.644;2023-04-08T01:25:52;99616.19;;;14.27;54.17
40574;BME280;26283;49.020;8.644;2023-04-08T01:28:20;99618.06;;;14.26;54.17
40574;BME280;26283;49.020;8.644;2023-04-08T01:30:47;99616.41;;;14.25;54.16
40574;BME280;26283;49.020;8.644;2023-04-08T01:33:15;99619.13;;;14.25;54.17
40574;BME280;26283;49.020;8.644;2023-04-08T01:35:41;99614.75;;;14.24;54.19
40574;BME280;26283;49.020;8.644;2023-04-08T01:38:09;99621.84;;;14.25;54.19
40574;BME280;26283;49.020;8.644;2023-04-08T01:40:36;99624.78;;;14.24;54.21
40574;BME280;26283;49.020;8.644;2023-04-08T01:43:04;99620.41;;;14.23;54.20
40574;BME280;26283;49.020;8.644;2023-04-08T01:45:32;99616.66;;;14.24;54.21
40574;BME280;26283;49.020;8.644;2023-04-08T01:47:59;99611.47;;;14.22;54.21
40574;BME280;26283;49.020;8.644;2023-04-08T01:50:26;99613.09;;;14.23;54.21
40574;BME280;26283;49.020;8.644;2023-04-08T01:52:52;99614.16;;;14.22;54.21
40574;BME280;26283;49.020;8.644;2023-04-08T01:55:19;99610.84;;;14.20;54.22
40574;BME280;26283;49.020;8.644;2023-04-08T01:57:48;99616.28;;;14.20;54.23
40574;BME280;26283;49.020;8.644;2023-04-08T02:00:18;99612.75;;;14.20;54.24
40574;BME280;26283;49.020;8.644;2023-04-08T02:02:45;99611.91;;;14.19;54.24
40574;BME280;26283;49.020;8.644;2023-04-08T02:05:11;99607.31;;;14.20;54.24
40574;BME280;26283;49.020;8.644;2023-04-08T02:07:37;99611.09;;;14.19;54.26
40574;BME280;26283;49.020;8.644;2023-04-08T02:10:03;99607.56;;;14.18;54.26
40574;BME280;26283;49.020;8.644;2023-04-08T02:12:28;99617.56;;;14.18;54.26
40574;BME280;26283;49.020;8.644;2023-04-08T02:14:54;99617.56;;;14.18;54.27
40574;BME280;26283;49.020;8.644;2023-04-08T02:17:34;99620.28;;;14.18;54.27
40574;BME280;26283;49.020;8.644;2023-04-08T02:20:06;99619.47;;;14.17;54.30
40574;BME280;26283;49.020;8.644;2023-04-08T02:22:43;99615.91;;;14.17;54.29
40574;BME280;26283;49.020;8.644;2023-04-08T02:25:14;99618.84;;;14.15;54.32
40574;BME280;26283;49.020;8.644;2023-04-08T02:27:41;99609.06;;;14.14;54.31
40574;BME280;26283;49.020;8.644;2023-04-08T02:30:09;99621.56;;;14.15;54.31
40574;BME280;26283;49.020;8.644;2023-04-08T02:32:36;99612.84;;;14.13;54.32
40574;BME280;26283;49.020;8.644;2023-04-08T02:35:03;99612.84;;;14.13;54.32
40574;BME280;26283;49.020;8.644;2023-04-08T02:37:30;99613.66;;;14.14;54.33
40574;BME280;26283;49.020;8.644;2023-04-08T02:39:56;99610.13;;;14.13;54.34
40574;BME280;26283;49.020;8.644;2023-04-08T02:42:21;99615.56;;;14.13;54.33
40574;BME280;26283;49.020;8.644;2023-04-08T02:44:47;99613.91;;;14.12;54.34
40574;BME280;26283;49.020;8.644;2023-04-08T02:47:12;99608.47;;;14.12;54.34
40574;BME280;26283;49.020;8.644;2023-04-08T02:49:38;99619.31;;;14.12;54.35
40574;BME280;26283;49.020;8.644;2023-04-08T02:52:03;99609.53;;;14.11;54.36
40574;BME280;26283;49.020;8.644;2023-04-08T02:54:29;99618.50;;;14.12;54.36
40574;BME280;26283;49.020;8.644;2023-04-08T02:56:54;99605.16;;;14.10;54.36
40574;BME280;26283;49.020;8.644;2023-04-08T02:59:20;99613.31;;;14.10;54.37
40574;BME280;26283;49.020;8.644;2023-04-08T03:01:45;99611.66;;;14.09;54.38
40574;BME280;26283;49.020;8.644;2023-04-08T03:04:10;99609.78;;;14.10;54.38
40574;BME280;26283;49.020;8.644;2023-04-08T03:06:36;99595.38;;;14.09;54.51
40574;BME280;26283;49.020;8.644;2023-04-08T03:09:01;99601.41;;;14.11;54.18
40574;BME280;26283;49.020;8.644;2023-04-08T03:11:27;99591.84;;;14.08;54.07
40574;BME280;26283;49.020;8.644;2023-04-08T03:13:52;99594.56;;;14.08;54.08
40574;BME280;26283;49.020;8.644;2023-04-08T03:16:17;99594.00;;;14.06;54.06
40574;BME280;26283;49.020;8.644;2023-04-08T03:18:43;99597.75;;;14.05;54.12
40574;BME280;26283;49.020;8.644;2023-04-08T03:21:08;99599.88;;;14.03;54.14
40574;BME280;26283;49.020;8.644;2023-04-08T03:23:33;99600.13;;;14.02;54.16
40574;BME280;26283;49.020;8.644;2023-04-08T03:25:59;99601.41;;;13.99;54.19
40574;BME280;26283;49.020;8.644;2023-04-08T03:28:24;99594.94;;;14.00;54.23
40574;BME280;26283;49.020;8.644;2023-04-08T03:30:50;99599.75;;;13.98;54.25
40574;BME280;26283;49.020;8.644;2023-04-08T03:33:15;99604.34;;;13.98;54.28
40574;BME280;26283;49.020;8.644;2023-04-08T03:35:40;99604.34;;;13.98;54.28
40574;BME280;26283;49.020;8.644;2023-04-08T03:38:06;99607.28;;;13.96;54.31
40574;BME280;26283;49.020;8.644;2023-04-08T03:40:31;99604.81;;;13.95;54.32
40574;BME280;26283;49.020;8.644;2023-04-08T03:42:57;99614.81;;;13.94;54.33
40574;BME280;26283;49.020;8.644;2023-04-08T03:45:22;99606.91;;;13.93;54.34
40574;BME280;26283;49.020;8.644;2023-04-08T03:47:47;99612.34;;;13.93;54.33
40574;BME280;26283;49.020;8.644;2023-04-08T03:50:13;99605.03;;;13.93;54.33
40574;BME280;26283;49.020;8.644;2023-04-08T03:52:38;99617.97;;;13.91;54.34
40574;BME280;26283;49.020;8.644;2023-04-08T03:55:04;99618.22;;;13.90;54.34
40574;BME280;26283;49.020;8.644;2023-04-08T03:57:29;99619.25;;;13.89;54.34
40574;BME280;26283;49.020;8.644;2023-04-08T03:59:54;99618.44;;;13.88;54.33
40574;BME280;26283;49.020;8.644;2023-04-08T04:02:20;99616.56;;;13.89;54.32
40574;BME280;26283;49.020;8.644;2023-04-08T04:04:46;99610.53;;;13.87;54.32
40574;BME280;26283;49.020;8.644;2023-04-08T04:07:11;99616.78;;;13.87;54.32
40574;BME280;26283;49.020;8.644;2023-04-08T04:09:37;99614.91;;;13.88;54.33
40574;BME280;26283;49.020;8.644;2023-04-08T04:12:02;99615.97;;;13.87;54.32
40574;BME280;26283;49.020;8.644;2023-04-08T04:14:27;99611.59;;;13.86;54.35
40574;BME280;26283;49.020;8.644;2023-04-08T04:16:53;99611.59;;;13.86;54.38
40574;BME280;26283;49.020;8.644;2023-04-08T04:19:18;99609.97;;;13.85;54.40
40574;BME280;26283;49.020;8.644;2023-04-08T04:21:43;99614.56;;;13.84;54.43
40574;BME280;26283;49.020;8.644;2023-04-08T04:24:09;99612.91;;;13.83;54.44
40574;BME280;26283;49.020;8.644;2023-04-08T04:26:34;99617.50;;;13.83;54.49
40574;BME280;26283;49.020;8.644;2023-04-08T04:28:59;99616.69;;;13.82;54.51
40574;BME280;26283;49.020;8.644;2023-04-08T04:31:25;99616.69;;;13.82;54.52
40574;BME280;26283;49.020;8.644;2023-04-08T04:33:50;99615.03;;;13.81;54.53
40574;BME280;26283;49.020;8.644;2023-04-08T04:36:16;99615.84;;;13.82;54.55
40574;BME280;26283;49.020;8.644;2023-04-08T04:38:42;99621.50;;;13.80;54.57
40574;BME280;26283;49.020;8.644;2023-04-08T04:41:08;99626.91;;;13.80;54.59
40574;BME280;26283;49.020;8.644;2023-04-08T04:43:33;99622.56;;;13.79;54.60
40574;BME280;26283;49.020;8.644;2023-04-08T04:45:58;99623.38;;;13.80;54.63
40574;BME280;26283;49.020;8.644;2023-04-08T04:48:24;99627.97;;;13.79;54.64
40574;BME280;26283;49.020;8.644;2023-04-08T04:50:57;99629.03;;;13.78;54.67
40574;BME280;26283;49.020;8.644;2023-04-08T04:53:23;99630.06;;;13.77;54.74
40574;BME280;26283;49.020;8.644;2023-04-08T04:55:49;99635.50;;;13.77;54.72
40574;BME280;26283;49.020;8.644;2023-04-08T04:58:15;99635.50;;;13.77;54.77
40574;BME280;26283;49.020;8.644;2023-04-08T05:00:41;99633.84;;;13.76;54.79
40574;BME280;26283;49.020;8.644;2023-04-08T05:03:06;99636.78;;;13.75;54.80
40574;BME280;26283;49.020;8.644;2023-04-08T05:05:31;99637.59;;;13.75;54.84
40574;BME280;26283;49.020;8.644;2023-04-08T05:07:57;99640.53;;;13.73;54.86
40574;BME280;26283;49.020;8.644;2023-04-08T05:10:22;99645.13;;;13.73;54.88
40574;BME280;26283;49.020;8.644;2023-04-08T05:12:47;99644.31;;;13.72;54.89
40574;BME280;26283;49.020;8.644;2023-04-08T05:15:13;99656.19;;;13.71;54.94
40574;BME280;26283;49.020;8.644;2023-04-08T05:17:38;99653.47;;;13.71;54.95
40574;BME280;26283;49.020;8.644;2023-04-08T05:20:04;99654.31;;;13.72;54.97
40574;BME280;26283;49.020;8.644;2023-04-08T05:22:30;99659.97;;;13.70;55.01
40574;BME280;26283;49.020;8.644;2023-04-08T05:24:55;99654.53;;;13.70;55.03
40574;BME280;26283;49.020;8.644;2023-04-08T05:27:20;99661.84;;;13.70;55.06
40574;BME280;26283;49.020;8.644;2023-04-08T05:29:46;99659.34;;;13.68;55.08
40574;BME280;26283;49.020;8.644;2023-04-08T05:32:11;99660.19;;;13.69;55.12
40574;BME280;26283;49.020;8.644;2023-04-08T05:34:37;99662.06;;;13.68;55.14
40574;BME280;26283;49.020;8.644;2023-04-08T05:37:02;99663.13;;;13.67;55.16
40574;BME280;26283;49.020;8.644;2023-04-08T05:39:28;99665.00;;;13.67;55.17
40574;BME280;26283;49.020;8.644;2023-04-08T05:41:53;99669.59;;;13.66;55.20
40574;BME280;26283;49.020;8.644;2023-04-08T05:44:18;99670.66;;;13.65;55.21
40574;BME280;26283;49.020;8.644;2023-04-08T05:46:44;99667.94;;;13.65;55.21
40574;BME280;26283;49.020;8.644;2023-04-08T05:49:10;99664.41;;;13.65;55.21
40574;BME280;26283;49.020;8.644;2023-04-08T05:51:36;99672.53;;;13.65;55.25
40574;BME280;26283;49.020;8.644;2023-04-08T05:54:01;99679.81;;;13.64;55.26
40574;BME280;26283;49.020;8.644;2023-04-08T05:56:27;99683.63;;;13.63;55.25
40574;BME280;26283;49.020;8.644;2023-04-08T05:58:52;99675.50;;;13.63;55.26
40574;BME280;26283;49.020;8.644;2023-04-08T06:01:17;99676.53;;;13.62;55.28
40574;BME280;26283;49.020;8.644;2023-04-08T06:03:43;99687.38;;;13.62;55.32
40574;BME280;26283;49.020;8.644;2023-04-08T06:06:11;99685.72;;;13.61;55.33
40574;BME280;26283;49.020;8.644;2023-04-08T06:08:37;99683.00;;;13.61;55.39
40574;BME280;26283;49.020;8.644;2023-04-08T06:11:02;99685.72;;;13.61;55.42
40574;BME280;26283;49.020;8.644;2023-04-08T06:13:31;99684.06;;;13.60;55.45
40574;BME280;26283;49.020;8.644;2023-04-08T06:15:56;99687.81;;;13.59;55.50
40574;BME280;26283;49.020;8.644;2023-04-08T06:18:22;99695.94;;;13.59;55.54
40574;BME280;26283;49.020;8.644;2023-04-08T06:20:47;99699.72;;;13.58;55.58
40574;BME280;26283;49.020;8.644;2023-04-08T06:23:13;99700.75;;;13.57;55.60
40574;BME280;26283;49.020;8.644;2023-04-08T06:25:38;99705.13;;;13.58;55.59
40574;BME280;26283;49.020;8.644;2023-04-08T06:28:03;99700.75;;;13.57;55.62
40574;BME280;26283;49.020;8.644;2023-04-08T06:30:29;99704.53;;;13.56;55.67
40574;BME280;26283;49.020;8.644;2023-04-08T06:32:54;99711.59;;;13.57;55.73
40574;BME280;26283;49.020;8.644;2023-04-08T06:35:20;99708.06;;;13.57;55.77
40574;BME280;26283;49.020;8.644;2023-04-08T06:37:45;99708.28;;;13.55;55.79
40574;BME280;26283;49.020;8.644;2023-04-08T06:40:11;99711.81;;;13.56;55.82
40574;BME280;26283;49.020;8.644;2023-04-08T06:42:36;99702.88;;;13.55;55.85
40574;BME280;26283;49.020;8.644;2023-04-08T06:45:07;99713.69;;;13.55;55.89
40574;BME280;26283;49.020;8.644;2023-04-08T06:47:32;99711.22;;;13.54;55.93
40574;BME280;26283;49.020;8.644;2023-04-08T06:50:00;99714.97;;;13.53;55.97
40574;BME280;26283;49.020;8.644;2023-04-08T06:52:25;99709.34;;;13.54;55.96
40574;BME280;26283;49.020;8.644;2023-04-08T06:54:51;99710.38;;;13.53;55.96
40574;BME280;26283;49.020;8.644;2023-04-08T06:57:16;99710.38;;;13.53;56.04
40574;BME280;26283;49.020;8.644;2023-04-08T06:59:42;99708.72;;;13.52;56.07
40574;BME280;26283;49.020;8.644;2023-04-08T07:02:07;99708.72;;;13.52;56.00
40574;BME280;26283;49.020;8.644;2023-04-08T07:04:32;99719.56;;;13.52;56.03
40574;BME280;26283;49.020;8.644;2023-04-08T07:06:58;99715.19;;;13.51;56.07
40574;BME280;26283;49.020;8.644;2023-04-08T07:09:23;99726.03;;;13.51;56.07
40574;BME280;26283;49.020;8.644;2023-04-08T07:11:48;99722.50;;;13.51;56.08
40574;BME280;26283;49.020;8.644;2023-04-08T07:14:14;99726.84;;;13.52;56.10
40574;BME280;26283;49.020;8.644;2023-04-08T07:16:39;99724.38;;;13.50;56.06
40574;BME280;26283;49.020;8.644;2023-04-08T07:19:05;99733.31;;;13.51;56.15
40574;BME280;26283;49.020;8.644;2023-04-08T07:21:30;99736.25;;;13.49;56.12
40574;BME280;26283;49.020;8.644;2023-04-08T07:23:56;99734.37;;;13.50;56.10
40574;BME280;26283;49.020;8.644;2023-04-08T07:26:21;99740.63;;;13.50;56.16
40574;BME280;26283;49.020;8.644;2023-04-08T07:28:47;99738.97;;;13.49;56.17
40574;BME280;26283;49.020;8.644;2023-04-08T07:31:14;99734.59;;;13.48;56.23
40574;BME280;26283;49.020;8.644;2023-04-08T07:33:40;99738.12;;;13.49;56.26
40574;BME280;26283;49.020;8.644;2023-04-08T07:36:08;99753.56;;;13.48;56.19
40574;BME280;26283;49.020;8.644;2023-04-08T07:38:33;99753.56;;;13.48;56.26
40574;BME280;26283;49.020;8.644;2023-04-08T07:40:59;99754.16;;;13.50;56.28
40574;BME280;26283;49.020;8.644;2023-04-08T07:43:25;99754.16;;;13.50;56.29
40574;BME280;26283;49.020;8.644;2023-04-08T07:45:50;99750.41;;;13.51;56.35
40574;BME280;26283;49.020;8.644;2023-04-08T07:48:16;99757.69;;;13.51;56.41
40574;BME280;26283;49.020;8.644;2023-04-08T07:50:41;99760.19;;;13.52;56.48
40574;BME280;26283;49.020;8.644;2023-04-08T07:53:06;99756.66;;;13.52;56.53
40574;BME280;26283;49.020;8.644;2023-04-08T07:55:33;99763.72;;;13.53;56.57
40574;BME280;26283;49.020;8.644;2023-04-08T07:57:59;99764.78;;;13.52;56.59
40574;BME280;26283;49.020;8.644;2023-04-08T08:00:24;99756.66;;;13.52;56.61
40574;BME280;26283;49.020;8.644;2023-04-08T08:02:50;99762.06;;;13.52;56.62
40574;BME280;26283;49.020;8.644;2023-04-08T08:05:15;99765.59;;;13.52;56.63
40574;BME280;26283;49.020;8.644;2023-04-08T08:07:40;99773.72;;;13.52;56.62
40574;BME280;26283;49.020;8.644;2023-04-08T08:10:07;99773.50;;;13.54;56.62
40574;BME280;26283;49.020;8.644;2023-04-08T08:12:32;99777.25;;;13.53;56.62
40574;BME280;26283;49.020;8.644;2023-04-08T08:14:57;99778.09;;;13.53;56.62
40574;BME280;26283;49.020;8.644;2023-04-08T08:17:23;99778.09;;;13.53;56.63
40574;BME280;26283;49.020;8.644;2023-04-08T08:19:49;99786.22;;;13.53;56.62
40574;BME280;26283;49.020;8.644;2023-04-08T08:22:15;99797.03;;;13.53;56.60
40574;BME280;26283;49.020;8.644;2023-04-08T08:24:40;99785.16;;;13.54;56.59
40574;BME280;26283;49.020;8.644;2023-04-08T08:27:09;99791.62;;;13.53;56.56
40574;BME280;26283;49.020;8.644;2023-04-08T08:29:35;99786.22;;;13.53;56.57
40574;BME280;26283;49.020;8.644;2023-04-08T08:32:01;99785.38;;;13.53;56.54
40574;BME280;26283;49.020;8.644;2023-04-08T08:34:28;99787.87;;;13.54;56.54
40574;BME280;26283;49.020;8.644;2023-04-08T08:36:53;99786.22;;;13.53;56.53
40574;BME280;26283;49.020;8.644;2023-04-08T08:39:19;99784.09;;;13.55;56.50
40574;BME280;26283;49.020;8.644;2023-04-08T08:41:44;99789.75;;;13.54;56.49
40574;BME280;26283;49.020;8.644;2023-04-08T08:44:10;99795.97;;;13.54;56.49
40574;BME280;26283;49.020;8.644;2023-04-08T08:46:43;99795.97;;;13.54;56.47
40574;BME280;26283;49.020;8.644;2023-04-08T08:49:09;99796.81;;;13.55;56.48
40574;BME280;26283;49.020;8.644;2023-04-08T08:51:36;99793.28;;;13.54;56.45
40574;BME280;26283;49.020;8.644;2023-04-08T08:54:03;99798.69;;;13.54;56.45
40574;BME280;26283;49.020;8.644;2023-04-08T08:56:28;99797.66;;;13.55;56.46
40574;BME280;26283;49.020;8.644;2023-04-08T08:58:54;99797.88;;;13.54;56.44
40574;BME280;26283;49.020;8.644;2023-04-08T09:01:30;99793.28;;;13.54;56.43
40574;BME280;26283;49.020;8.644;2023-04-08T09:04:16;99801.41;;;13.54;56.44
40574;BME280;26283;49.020;8.644;2023-04-08T09:06:45;99805.78;;;13.55;56.45
40574;BME280;26283;49.020;8.644;2023-04-08T09:09:11;99805.78;;;13.55;56.40
40574;BME280;26283;49.020;8.644;2023-04-08T09:11:42;99806.59;;;13.56;56.41
40574;BME280;26283;49.020;8.644;2023-04-08T09:14:21;99807.44;;;13.56;56.41
40574;BME280;26283;49.020;8.644;2023-04-08T09:16:47;99812.63;;;13.58;56.41
40574;BME280;26283;49.020;8.644;2023-04-08T09:19:13;99798.25;;;13.57;56.37
40574;BME280;26283;49.020;8.644;2023-04-08T09:21:39;99806.38;;;13.57;56.37
40574;BME280;26283;49.020;8.644;2023-04-08T09:24:08;99806.38;;;13.57;56.36
40574;BME280;26283;49.020;8.644;2023-04-08T09:26:35;99807.19;;;13.58;56.34
40574;BME280;26283;49.020;8.644;2023-04-08T09:29:08;99800.97;;;13.57;56.32
40574;BME280;26283;49.020;8.644;2023-04-08T09:31:35;99805.31;;;13.58;56.32
40574;BME280;26283;49.020;8.644;2023-04-08T09:34:09;99797.19;;;13.58;56.29
40574;BME280;26283;49.020;8.644;2023-04-08T09:36:36;99806.38;;;13.57;56.29
40574;BME280;26283;49.020;8.644;2023-04-08T09:39:01;99802.37;;;13.60;56.26
40574;BME280;26283;49.020;8.644;2023-04-08T09:41:27;99801.56;;;13.59;56.25
40574;BME280;26283;49.020;8.644;2023-04-08T09:43:54;99804.03;;;13.61;56.24
40574;BME280;26283;49.020;8.644;2023-04-08T09:46:35;99804.03;;;13.61;56.22
40574;BME280;26283;49.020;8.644;2023-04-08T09:49:12;99803.22;;;13.60;56.22
40574;BME280;26283;49.020;8.644;2023-04-08T09:54:13;99799.25;;;13.63;56.18
40574;BME280;26283;49.020;8.644;2023-04-08T09:56:48;99802.78;;;13.63;56.16
40574;BME280;26283;49.020;8.644;2023-04-08T09:59:17;99801.94;;;13.63;56.15
40574;BME280;26283;49.020;8.644;2023-04-08T10:01:51;99803.59;;;13.64;56.13
40574;BME280;26283;49.020;8.644;2023-04-08T10:04:19;99809.81;;;13.64;56.13
40574;BME280;26283;49.020;8.644;2023-04-08T10:06:49;99806.06;;;13.65;56.10
40574;BME280;26283;49.020;8.644;2023-04-08T10:09:19;99812.31;;;13.66;56.09
40574;BME280;26283;49.020;8.644;2023-04-08T10:11:45;99811.25;;;13.67;56.07
40574;BME280;26283;49.020;8.644;2023-04-08T10:14:10;99812.06;;;13.67;56.04
40574;BME280;26283;49.020;8.644;2023-04-08T10:16:36;99809.38;;;13.67;56.04
40574;BME280;26283;49.020;8.644;2023-04-08T10:19:35;99811.03;;;13.68;56.03
40574;BME280;26283;49.020;8.644;2023-04-08T10:22:01;99819.16;;;13.68;56.02
40574;BME280;26283;49.020;8.644;2023-04-08T10:24:26;99813.50;;;13.70;55.97
40574;BME280;26283;49.020;8.644;2023-04-08T10:26:52;99811.63;;;13.70;55.98
40574;BME280;26283;49.020;8.644;2023-04-08T10:31:43;99810.56;;;13.71;55.95
40574;BME280;26283;49.020;8.644;2023-04-08T10:34:18;99809.53;;;13.72;55.92
40574;BME280;26283;49.020;8.644;2023-04-08T10:36:44;99802.22;;;13.73;55.92
40574;BME280;26283;49.020;8.644;2023-04-08T10:39:11;99811.19;;;13.73;55.88
40574;BME280;26283;49.020;8.644;2023-04-08T10:41:42;99805.78;;;13.73;55.88
40574;BME280;26283;49.020;8.644;2023-04-08T10:44:34;99805.53;;;13.75;55.87
40574;BME280;26283;49.020;8.644;2023-04-08T10:46:59;99814.50;;;13.76;55.85
40574;BME280;26283;49.020;8.644;2023-04-08T10:49:32;99809.69;;;13.78;55.82
40574;BME280;26283;49.020;8.644;2023-04-08T10:51:58;99809.69;;;13.78;55.81
40574;BME280;26283;49.020;8.644;2023-04-08T10:54:25;99803.44;;;13.77;55.77
40574;BME280;26283;49.020;8.644;2023-04-08T10:56:51;99808.63;;;13.79;55.76
40574;BME280;26283;49.020;8.644;2023-04-08T10:59:28;99796.75;;;13.80;55.75
40574;BME280;26283;49.020;8.644;2023-04-08T11:01:53;99803.00;;;13.80;55.73
40574;BME280;26283;49.020;8.644;2023-04-08T11:04:19;99800.28;;;13.80;55.71
40574;BME280;26283;49.020;8.644;2023-04-08T11:06:47;99799.22;;;13.81;55.70
40574;BME280;26283;49.020;8.644;2023-04-08T11:09:14;99800.88;;;13.82;55.67
40574;BME280;26283;49.020;8.644;2023-04-08T11:11:44;99790.06;;;13.82;55.63
40574;BME280;26283;49.020;8.644;2023-04-08T11:14:11;99795.25;;;13.84;55.60
40574;BME280;26283;49.020;8.644;2023-04-08T11:16:37;99792.31;;;13.85;55.58
40574;BME280;26283;49.020;8.644;2023-04-08T11:19:04;99790.41;;;13.86;55.45
40574;BME280;26283;49.020;8.644;2023-04-08T11:21:31;99793.94;;;13.86;55.35
40574;BME280;26283;49.020;8.644;2023-04-08T11:23:57;99790.16;;;13.87;55.36
40574;BME280;26283;49.020;8.644;2023-04-08T11:26:24;99792.66;;;13.89;55.34
40574;BME280;26283;49.020;8.644;2023-04-08T11:28:49;99797.25;;;13.88;55.33
40574;BME280;26283;49.020;8.644;2023-04-08T11:31:16;99804.31;;;13.89;55.31
40574;BME280;26283;49.020;8.644;2023-04-08T11:33:46;99807.88;;;13.90;55.31
40574;BME280;26283;49.020;8.644;2023-04-08T11:36:12;99800.34;;;13.92;55.28
40574;BME280;26283;49.020;8.644;2023-04-08T11:38:38;99803.03;;;13.92;55.27
40574;BME280;26283;49.020;8.644;2023-04-08T11:41:07;99802.00;;;13.93;55.26
40574;BME280;26283;49.020;8.644;2023-04-08T11:43:33;99812.81;;;13.93;55.24
40574;BME280;26283;49.020;8.644;2023-04-08T11:46:10;99802.00;;;13.93;55.22
40574;BME280;26283;49.020;8.644;2023-04-08T11:48:36;99799.06;;;13.94;55.20
40574;BME280;26283;49.020;8.644;2023-04-08T11:51:03;99805.31;;;13.95;55.19
40574;BME280;26283;49.020;8.644;2023-04-08T11:53:29;99803.66;;;13.94;55.17
40574;BME280;26283;49.020;8.644;2023-04-08T11:55:54;99795.28;;;13.95;55.17
40574;BME280;26283;49.020;8.644;2023-04-08T11:58:20;99798.84;;;13.96;55.15
40574;BME280;26283;49.020;8.644;2023-04-08T12:00:45;99792.38;;;13.97;55.14
40574;BME280;26283;49.020;8.644;2023-04-08T12:03:11;99796.94;;;13.96;55.12
40574;BME280;26283;49.020;8.644;2023-04-08T12:05:37;99795.66;;;13.99;55.10
40574;BME280;26283;49.020;8.644;2023-04-08T12:08:03;99792.97;;;13.99;55.09
40574;BME280;26283;49.020;8.644;2023-04-08T12:10:28;99801.09;;;13.99;55.06
40574;BME280;26283;49.020;8.644;2023-04-08T12:12:54;99791.91;;;14.00;55.03
40574;BME280;26283;49.020;8.644;2023-04-08T12:15:19;99798.97;;;14.01;55.01
40574;BME280;26283;49.020;8.644;2023-04-08T12:17:45;99792.75;;;14.00;55.00
40574;BME280;26283;49.020;8.644;2023-04-08T12:20:11;99806.06;;;14.02;55.00
40574;BME280;26283;49.020;8.644;2023-04-08T12:22:37;99797.94;;;14.02;54.96
40574;BME280;26283;49.020;8.644;2023-04-08T12:25:03;99796.06;;;14.02;54.93
40574;BME280;26283;49.020;8.644;2023-04-08T12:27:29;99804.19;;;14.02;54.92
40574;BME280;26283;49.020;8.644;2023-04-08T12:29:57;99809.38;;;14.04;54.90
40574;BME280;26283;49.020;8.644;2023-04-08T12:32:23;99809.38;;;14.04;54.88
40574;BME280;26283;49.020;8.644;2023-04-08T12:34:49;99800.41;;;14.03;54.87
40574;BME280;26283;49.020;8.644;2023-04-08T12:37:15;99795.00;;;14.03;54.85
40574;BME280;26283;49.020;8.644;2023-04-08T12:39:40;99804.78;;;14.04;54.84
40574;BME280;26283;49.020;8.644;2023-04-08T12:42:06;99803.50;;;14.07;54.81
40574;BME280;26283;49.020;8.644;2023-04-08T12:44:31;99808.09;;;14.06;54.81
40574;BME280;26283;49.020;8.644;2023-04-08T12:46:57;99806.22;;;14.07;54.79
40574;BME280;26283;49.020;8.644;2023-04-08T12:49:24;99805.13;;;14.08;54.77
40574;BME280;26283;49.020;8.644;2023-04-08T12:51:49;99805.97;;;14.08;54.76
40574;BME280;26283;49.020;8.644;2023-04-08T12:54:15;99802.41;;;14.08;54.74
40574;BME280;26283;49.020;8.644;2023-04-08T12:56:41;99812.19;;;14.09;54.76
40574;BME280;26283;49.020;8.644;2023-04-08T12:59:07;99807.59;;;14.10;54.76
40574;BME280;26283;49.020;8.644;2023-04-08T13:01:33;99810.31;;;14.10;54.74
40574;BME280;26283;49.020;8.644;2023-04-08T13:03:58;99804.91;;;14.10;54.71